Time;durP1;ratioP1;P1;durP2;ratioP2;P2;SDS_P1;SDS_P2;PMS_P1;PMS_P2;Temp;Humidity;BMP_temperature;BMP_pressure;BME280_temperature;BME280_humidity;BME280_pressure;Samples;Min_cycle;Max_cycle;Signal;HPM_P1;HPM_P2
2022/04/21 00:01:22;;;;;;;9.07;3.17;;;;;;;13.20;46.24;101058.34;5027875;27;96846;-70
2022/04/21 00:03:50;;;;;;;12.88;4.03;;;;;;;13.60;45.09;101055.75;5022787;27;96973;-69
2022/04/21 00:06:17;;;;;;;9.93;3.20;;;;;;;13.33;45.93;101057.78;5019299;27;99538;-71
2022/04/21 00:08:43;;;;;;;9.65;3.28;;;;;;;13.08;46.30;101049.94;5028232;27;102431;-70
2022/04/21 00:11:10;;;;;;;12.73;4.10;;;;;;;12.43;48.11;101059.63;5029602;27;96905;-70
2022/04/21 00:13:37;;;;;;;8.50;3.38;;;;;;;12.81;47.48;101061.66;5029537;27;97182;-69
2022/04/21 00:16:03;;;;;;;6.80;3.63;;;;;;;12.90;47.15;101058.66;5024619;27;98934;-71
2022/04/21 00:18:30;;;;;;;12.23;3.80;;;;;;;12.07;48.85;101061.88;5026087;27;99338;-71
2022/04/21 00:21:00;;;;;;;8.73;3.25;;;;;;;12.57;48.36;101052.03;5029644;27;96790;-70
2022/04/21 00:23:26;;;;;;;7.70;3.85;;;;;;;12.29;48.85;101049.56;5026352;28;96891;-71
2022/04/21 00:25:54;;;;;;;10.75;3.72;;;;;;;12.44;48.43;101050.78;5025878;27;98992;-70
2022/04/21 00:28:21;;;;;;;10.85;3.35;;;;;;;12.21;48.93;101047.19;5028870;27;97055;-70
2022/04/21 00:30:47;;;;;;;7.43;3.80;;;;;;;12.48;48.60;101052.38;5022384;27;96935;-71
2022/04/21 00:33:14;;;;;;;10.35;3.60;;;;;;;12.16;49.52;101064.19;5027366;27;97420;-70
2022/04/21 00:35:40;;;;;;;12.20;3.42;;;;;;;12.90;47.77;101056.00;5026963;27;99047;-70
2022/04/21 00:38:08;;;;;;;11.73;3.80;;;;;;;13.32;46.44;101048.13;5025804;27;98997;-70
2022/04/21 00:40:35;;;;;;;11.52;3.45;;;;;;;12.79;47.63;101050.28;5024729;27;97953;-69
2022/04/21 00:43:02;;;;;;;10.57;3.88;;;;;;;12.91;47.77;101048.91;5024293;27;96958;-69
2022/04/21 00:45:29;;;;;;;12.10;4.22;;;;;;;12.43;48.77;101057.84;5030407;27;97542;-68
2022/04/21 00:47:57;;;;;;;26.83;8.73;;;;;;;12.15;49.79;101063.31;5026313;27;99566;-70
2022/04/21 00:50:27;;;;;;;18.52;4.00;;;;;;;12.31;49.12;101056.53;5022788;27;96765;-69
2022/04/21 00:52:54;;;;;;;9.98;3.65;;;;;;;12.74;48.29;101053.09;5026059;27;96921;-68
2022/04/21 00:55:23;;;;;;;10.45;3.30;;;;;;;12.60;48.29;101041.31;5023292;27;99419;-70
2022/04/21 00:57:52;;;;;;;13.57;3.35;;;;;;;12.60;48.59;101034.19;5019997;28;98963;-68
2022/04/21 01:00:19;;;;;;;10.60;3.50;;;;;;;12.69;48.12;101031.19;5025042;27;96815;-69
2022/04/21 01:02:52;;;;;;;10.07;3.58;;;;;;;12.81;48.28;101036.94;5026606;27;96812;-68
2022/04/21 01:05:28;;;;;;;14.38;4.38;;;;;;;12.34;49.35;101047.59;5027911;27;102565;-69
2022/04/21 01:07:56;;;;;;;14.95;4.88;;;;;;;12.86;47.96;101040.28;5029603;27;98801;-70
2022/04/21 01:10:26;;;;;;;9.85;3.78;;;;;;;13.16;47.44;101026.66;5023304;27;97141;-69
2022/04/21 01:12:52;;;;;;;12.48;4.00;;;;;;;13.07;47.65;101029.63;5025048;27;98667;-69
2022/04/21 01:15:18;;;;;;;10.40;4.45;;;;;;;13.46;46.34;101029.78;5025997;27;99226;-68
2022/04/21 01:17:46;;;;;;;12.23;4.68;;;;;;;13.29;46.65;101026.13;5027748;27;99085;-69
2022/04/21 01:20:18;;;;;;;15.95;4.20;;;;;;;13.75;45.82;101019.69;5028861;27;96891;-69
2022/04/21 01:22:45;;;;;;;14.57;3.67;;;;;;;13.57;46.07;101021.38;5026078;27;97811;-69
2022/04/21 01:25:11;;;;;;;14.32;3.45;;;;;;;13.67;45.88;101016.50;5029830;27;99300;-70
2022/04/21 01:27:39;;;;;;;12.43;3.88;;;;;;;13.21;46.84;101012.31;5024672;27;98085;-69
2022/04/21 01:30:08;;;;;;;11.57;4.25;;;;;;;12.72;48.46;101012.53;5025222;27;98493;-69
2022/04/21 01:32:36;;;;;;;15.43;3.83;;;;;;;13.11;47.71;101018.00;5028141;27;96947;-69
2022/04/21 01:35:05;;;;;;;9.75;3.70;;;;;;;12.66;48.72;101027.81;5027015;27;98132;-69
2022/04/21 01:43:02;;;;;;;11.43;3.30;;;;;;;12.44;50.14;101030.44;5018162;27;96896;-69
2022/04/21 01:45:29;;;;;;;9.07;3.40;;;;;;;12.33;49.96;101028.22;5023684;28;98978;-69
2022/04/21 01:47:56;;;;;;;11.90;3.88;;;;;;;12.58;49.61;101024.59;5027278;27;99393;-68
2022/04/21 01:50:23;;;;;;;9.25;3.88;;;;;;;13.09;48.17;101018.97;5031119;27;98789;-69
2022/04/21 01:52:50;;;;;;;12.95;4.10;;;;;;;12.67;49.44;101027.72;5030300;27;96820;-69
2022/04/21 01:55:17;;;;;;;12.90;3.72;;;;;;;12.89;48.54;101025.09;5026881;27;98167;-70
2022/04/21 01:57:43;;;;;;;13.50;3.72;;;;;;;13.47;47.44;101026.22;5024693;28;100522;-69
2022/04/21 02:00:11;;;;;;;9.68;3.60;;;;;;;13.38;47.16;101028.41;5026524;27;97189;-70
2022/04/21 02:02:37;;;;;;;9.90;3.75;;;;;;;13.74;46.49;101018.84;5021536;27;97526;-70
2022/04/21 02:05:04;;;;;;;15.82;4.00;;;;;;;14.01;45.87;101019.41;5027114;27;99247;-69
2022/04/21 02:07:31;;;;;;;10.13;3.65;;;;;;;13.86;46.44;101001.47;5026805;27;98863;-69
2022/04/21 02:09:58;;;;;;;10.23;3.47;;;;;;;13.67;47.05;101009.41;5027855;27;96836;-70
2022/04/21 02:12:28;;;;;;;14.15;3.90;;;;;;;13.29;48.66;101010.22;5019987;27;97344;-69
2022/04/21 02:14:54;;;;;;;9.88;3.33;;;;;;;13.26;49.27;101011.19;5028483;27;101106;-70
2022/04/21 02:17:20;;;;;;;10.02;3.30;;;;;;;12.91;49.84;101004.69;5021800;27;98815;-70
2022/04/21 02:19:47;;;;;;;10.00;3.95;;;;;;;12.79;50.32;101005.19;5028696;27;96742;-70
2022/04/21 02:22:13;;;;;;;13.00;3.72;;;;;;;12.92;50.64;101000.25;5020911;27;97605;-69
2022/04/21 02:24:40;;;;;;;10.38;4.07;;;;;;;13.05;50.50;101010.28;5022514;27;99233;-69
2022/04/21 02:27:08;;;;;;;11.65;4.28;;;;;;;12.71;50.41;100999.31;5025273;27;98607;-69
2022/04/21 02:29:35;;;;;;;13.68;3.97;;;;;;;12.05;52.27;101016.91;5030350;27;97285;-69
2022/04/21 02:32:02;;;;;;;15.50;4.07;;;;;;;12.86;50.68;100992.53;5020773;27;97534;-69
2022/04/21 02:34:29;;;;;;;14.57;3.80;;;;;;;12.94;49.65;100985.97;5028903;27;99061;-70
2022/04/21 02:36:56;;;;;;;11.73;4.03;;;;;;;12.60;50.29;100986.47;5026127;27;99017;-70
2022/04/21 02:39:23;;;;;;;10.15;3.50;;;;;;;12.27;51.57;100985.19;5027434;27;96723;-69
2022/04/21 02:41:52;;;;;;;12.85;4.35;;;;;;;12.58;50.98;100984.84;5026400;27;97604;-69
2022/04/21 02:44:20;;;;;;;10.88;4.03;;;;;;;12.75;50.24;100982.34;5023029;27;101072;-70
2022/04/21 02:46:47;;;;;;;15.88;4.07;;;;;;;12.36;50.92;100982.16;5024228;27;98805;-69
2022/04/21 02:49:15;;;;;;;14.68;4.10;;;;;;;12.66;50.49;100973.00;5027371;27;96927;-70
2022/04/21 02:51:42;;;;;;;7.78;3.40;;;;;;;12.78;49.86;100976.94;5027230;27;97191;-69
2022/04/21 02:59:38;;;;;;;10.10;4.20;;;;;;;12.36;51.41;100980.38;5030133;28;98840;-69
2022/04/21 03:02:05;;;;;;;11.05;3.70;;;;;;;12.39;51.16;100979.41;5025696;27;97353;-69
2022/04/21 03:04:31;;;;;;;12.98;3.90;;;;;;;12.60;50.17;100983.00;5024589;27;101759;-69
2022/04/21 03:06:58;;;;;;;12.48;3.65;;;;;;;12.59;50.47;100976.81;5029521;27;99960;-68
2022/04/21 03:09:24;;;;;;;14.07;4.55;;;;;;;12.58;50.20;100991.00;5025313;27;96969;-69
2022/04/21 03:11:51;;;;;;;15.70;4.32;;;;;;;12.75;50.33;100980.56;5031117;27;96974;-68
2022/04/21 03:14:19;;;;;;;14.38;4.40;;;;;;;12.75;49.86;100977.91;5029885;27;101151;-71
2022/04/21 03:16:47;;;;;;;15.32;4.63;;;;;;;12.00;51.92;100989.75;5031652;27;99430;-69
2022/04/21 03:19:13;;;;;;;16.05;4.57;;;;;;;12.53;50.70;100986.81;5027549;27;97861;-68
2022/04/21 03:24:37;;;;;;;17.95;4.55;;;;;;;12.52;50.62;100979.78;4967257;28;97527;-69
2022/04/21 03:27:04;;;;;;;11.70;4.60;;;;;;;12.49;50.94;100985.19;5013364;27;99627;-68
2022/04/21 03:29:31;;;;;;;12.27;4.47;;;;;;;12.43;50.82;100978.34;5028243;27;99193;-70
2022/04/21 03:31:59;;;;;;;18.40;4.78;;;;;;;12.12;51.86;100970.72;5028620;27;96801;-69
2022/04/21 03:34:25;;;;;;;12.88;4.95;;;;;;;11.95;52.19;100984.59;5025120;27;99327;-70
2022/04/21 03:36:52;;;;;;;15.73;4.88;;;;;;;12.44;51.27;100974.78;5029222;27;97660;-69
2022/04/21 03:39:20;;;;;;;17.45;5.07;;;;;;;12.12;52.11;100989.28;5028756;27;97646;-69
2022/04/21 03:41:48;;;;;;;12.20;4.38;;;;;;;12.28;51.99;100982.44;5026974;27;96968;-70
2022/04/21 03:44:14;;;;;;;14.38;4.35;;;;;;;11.90;52.98;100997.16;5029433;27;99127;-71
2022/04/21 03:46:41;;;;;;;15.15;4.72;;;;;;;12.54;51.43;100985.84;5027464;27;99133;-69
2022/04/21 03:49:09;;;;;;;13.25;5.13;;;;;;;12.06;52.44;100997.44;5030923;27;96889;-71
2022/04/21 03:51:35;;;;;;;15.80;4.75;;;;;;;11.72;53.51;100997.78;5024062;27;96853;-69
2022/04/21 03:54:02;;;;;;;16.60;4.60;;;;;;;11.41;54.45;101002.44;5030710;27;97612;-69
2022/04/21 03:56:28;;;;;;;14.25;4.60;;;;;;;11.34;55.14;101003.59;5024447;27;99016;-69
2022/04/21 03:58:58;;;;;;;11.15;5.13;;;;;;;11.82;53.66;101004.50;5028603;27;96812;-70
2022/04/21 04:01:25;;;;;;;19.02;4.90;;;;;;;12.33;52.26;101004.34;5022571;27;97235;-70
2022/04/21 04:03:51;;;;;;;16.45;4.80;;;;;;;11.86;53.27;101007.91;5030076;27;99367;-69
2022/04/21 04:11:50;;;;;;;11.63;4.75;;;;;;;12.63;51.29;101004.06;5024834;27;97608;-69
2022/04/21 04:14:16;;;;;;;22.38;5.60;;;;;;;12.23;52.45;101007.41;5028144;27;101383;-70
2022/04/21 04:16:44;;;;;;;16.38;4.78;;;;;;;12.41;52.05;101008.47;5024675;27;99135;-70
2022/04/21 04:19:11;;;;;;;13.55;4.82;;;;;;;12.59;51.68;101011.28;5028068;27;96881;-70
2022/04/21 04:21:39;;;;;;;13.20;4.72;;;;;;;12.44;52.09;101006.59;5025157;27;97171;-70
2022/04/21 04:24:07;;;;;;;19.05;5.63;;;;;;;12.75;51.37;101015.03;5029271;27;98258;-69
2022/04/21 04:26:33;;;;;;;10.27;4.28;;;;;;;12.80;50.82;101012.19;5028552;27;99182;-69
2022/04/21 04:29:02;;;;;;;19.38;5.65;;;;;;;12.62;51.08;101011.16;5028454;27;97177;-69
2022/04/21 04:31:29;;;;;;;15.05;4.65;;;;;;;12.19;52.46;101019.03;5026983;27;96770;-69
2022/04/21 04:34:26;;;;;;;17.30;5.20;;;;;;;12.06;53.24;101010.69;5026418;27;97781;-69
2022/04/21 04:36:54;;;;;;;12.93;4.45;;;;;;;12.33;52.74;101004.34;4998144;27;100096;-69
2022/04/21 04:39:20;;;;;;;12.32;4.57;;;;;;;12.31;53.02;101014.16;5028184;27;96759;-70
2022/04/21 04:44:31;;;;;;;15.15;5.22;;;;;;;12.02;54.44;101022.31;5023275;27;97849;-68
2022/04/21 04:46:57;;;;;;;17.77;5.28;;;;;;;12.26;54.71;101020.53;5022149;27;98895;-69
2022/04/21 04:49:24;;;;;;;17.55;5.07;;;;;;;12.35;53.59;101025.47;5029742;28;97089;-69
2022/04/21 04:51:51;;;;;;;14.05;5.47;;;;;;;12.34;53.91;101021.97;5024993;27;98733;-68
2022/04/21 04:54:19;;;;;;;17.70;5.63;;;;;;;12.69;52.97;101025.88;5024702;28;98921;-69
2022/04/21 04:56:47;;;;;;;17.40;5.45;;;;;;;11.83;54.51;101027.41;5029313;27;99239;-69
2022/04/21 04:59:14;;;;;;;12.88;5.18;;;;;;;11.85;55.11;101027.38;5026037;27;97378;-69
2022/04/21 05:01:42;;;;;;;11.00;5.78;;;;;;;12.16;54.11;101022.66;5024388;27;96824;-70
2022/04/21 05:04:10;;;;;;;11.90;4.65;;;;;;;12.54;53.60;101031.78;5028849;27;102313;-70
2022/04/21 05:06:39;;;;;;;11.18;4.93;;;;;;;12.60;52.86;101036.00;5021399;27;99354;-68
2022/04/21 05:09:07;;;;;;;22.48;6.15;;;;;;;12.98;52.02;101031.81;5022145;27;96903;-69
2022/04/21 05:11:35;;;;;;;16.48;4.68;;;;;;;12.87;52.46;101045.50;5029444;27;96849;-69
2022/04/21 05:14:02;;;;;;;16.50;5.10;;;;;;;13.12;51.48;101046.28;5029551;27;100814;-69
2022/04/21 05:16:29;;;;;;;14.15;5.25;;;;;;;12.51;52.68;101049.63;5019876;27;98013;-70
2022/04/21 05:18:57;;;;;;;14.68;4.78;;;;;;;12.05;54.66;101042.53;5025110;27;96996;-70
2022/04/21 05:21:25;;;;;;;13.85;5.30;;;;;;;12.69;53.14;101040.94;5024451;27;96890;-71
2022/04/21 05:23:56;;;;;;;16.55;5.38;;;;;;;13.18;51.66;101039.88;5023061;27;99302;-69
2022/04/21 05:26:23;;;;;;;14.73;5.55;;;;;;;12.37;54.08;101036.88;5021243;27;97522;-69
2022/04/21 05:28:52;;;;;;;15.32;4.75;;;;;;;12.66;53.03;101041.94;5027971;27;96903;-69
2022/04/21 05:31:17;;;;;;;11.02;5.78;;;;;;;12.89;52.79;101041.00;5022746;27;97965;-71
2022/04/21 05:33:45;;;;;;;14.48;5.60;;;;;;;12.49;53.67;101043.50;5025727;27;98884;-72
2022/04/21 05:36:12;;;;;;;18.65;5.20;;;;;;;12.84;52.74;101044.78;5029131;27;98146;-71
2022/04/21 05:38:39;;;;;;;13.23;4.93;;;;;;;12.88;52.09;101046.38;5022132;27;96721;-72
2022/04/21 05:41:07;;;;;;;11.70;4.97;;;;;;;12.53;52.88;101040.69;5025185;27;97549;-70
2022/04/21 05:43:42;;;;;;;15.02;5.55;;;;;;;12.47;53.10;101040.06;5033245;27;100869;-70
2022/04/21 05:46:12;;;;;;;16.13;4.95;;;;;;;12.59;53.15;101039.59;5021637;27;98776;-70
2022/04/21 05:48:41;;;;;;;15.27;5.07;;;;;;;12.29;54.67;101041.59;5021847;27;97955;-71
2022/04/21 05:51:10;;;;;;;14.45;5.60;;;;;;;12.42;54.15;101036.69;5023171;27;97840;-71
2022/04/21 05:53:39;;;;;;;18.58;5.78;;;;;;;12.34;54.29;101034.34;5023763;27;99832;-70
2022/04/21 05:56:07;;;;;;;14.02;5.03;;;;;;;12.99;52.82;101031.78;5026580;27;99843;-71
2022/04/21 05:58:36;;;;;;;13.27;4.97;;;;;;;13.33;52.17;101036.53;5021769;27;97259;-70
2022/04/21 06:01:06;;;;;;;10.23;5.43;;;;;;;13.69;51.00;101030.59;5021692;27;97841;-71
2022/04/21 06:03:35;;;;;;;17.73;5.00;;;;;;;12.70;52.99;101026.75;5026395;27;99337;-69
2022/04/21 06:06:02;;;;;;;16.08;4.88;;;;;;;12.80;53.03;101032.56;5022938;28;98281;-70
2022/04/21 06:08:29;;;;;;;14.93;5.53;;;;;;;12.13;55.03;101028.09;5019459;27;97151;-70
2022/04/21 06:10:56;;;;;;;13.77;5.10;;;;;;;12.29;54.29;101031.00;5025344;27;98702;-71
2022/04/21 06:13:25;;;;;;;17.50;4.85;;;;;;;12.31;54.44;101030.03;5019881;27;99131;-70
2022/04/21 06:15:52;;;;;;;14.40;5.25;;;;;;;12.21;54.34;101026.00;5018049;27;99090;-72
2022/04/21 06:18:19;;;;;;;21.67;5.72;;;;;;;12.28;54.19;101018.69;5022080;27;96839;-69
2022/04/21 06:20:47;;;;;;;10.43;4.50;;;;;;;12.51;53.92;101015.16;5019738;27;98450;-71
2022/04/21 06:23:14;;;;;;;17.02;5.40;;;;;;;12.84;53.04;101012.94;5022600;27;98910;-72
2022/04/21 06:25:41;;;;;;;13.45;5.07;;;;;;;12.11;54.48;101011.38;5018439;27;99161;-71
2022/04/21 06:28:08;;;;;;;10.32;4.68;;;;;;;12.08;55.14;101015.94;5026000;27;96871;-72
2022/04/21 06:30:35;;;;;;;20.77;7.88;;;;;;;12.53;53.47;101010.66;5020960;27;97181;-70
2022/04/21 06:33:02;;;;;;;18.58;5.57;;;;;;;12.37;54.13;101008.59;5021304;27;99490;-71
2022/04/21 06:35:29;;;;;;;17.02;5.60;;;;;;;12.78;53.09;101009.63;5020230;27;98774;-71
2022/04/21 06:37:57;;;;;;;12.95;5.18;;;;;;;13.36;51.30;101009.03;5021903;27;97147;-72
2022/04/21 06:40:24;;;;;;;15.20;4.93;;;;;;;13.37;51.17;101008.97;5021589;27;98005;-70
2022/04/21 06:42:51;;;;;;;17.30;5.78;;;;;;;13.73;50.06;101010.94;5023173;27;99068;-70
2022/04/21 06:48:05;;;;;;;18.08;5.72;;;;;;;13.94;49.34;101016.16;5024688;27;97176;-70
2022/04/21 06:50:38;;;;;;;14.77;5.30;;;;;;;14.53;47.81;101017.00;5025962;27;97449;-70
2022/04/21 06:53:07;;;;;;;13.20;5.53;;;;;;;14.35;47.74;101018.72;5024605;27;98931;-70
2022/04/21 06:55:35;;;;;;;17.42;5.10;;;;;;;13.95;49.21;101022.34;5025173;27;98735;-71
2022/04/21 06:58:02;;;;;;;15.38;4.65;;;;;;;13.27;50.96;101023.53;5022600;27;96948;-70
2022/04/21 07:00:29;;;;;;;17.38;5.18;;;;;;;13.68;49.94;101032.38;5028246;27;96853;-71
2022/04/21 07:02:57;;;;;;;15.18;4.65;;;;;;;13.52;50.23;101036.66;5025118;27;98692;-70
2022/04/21 07:05:25;;;;;;;20.08;6.40;;;;;;;13.18;50.86;101028.38;5023282;27;98270;-71
2022/04/21 07:07:52;;;;;;;19.67;5.10;;;;;;;12.89;52.20;101035.69;5029266;27;97168;-69
2022/04/21 07:10:21;;;;;;;13.90;5.05;;;;;;;13.35;51.05;101036.50;5032454;27;97001;-69
2022/04/21 07:12:48;;;;;;;16.42;4.88;;;;;;;13.02;51.47;101028.97;5028127;27;97545;-70
2022/04/21 07:15:16;;;;;;;12.32;5.28;;;;;;;13.09;51.43;101034.88;5026888;27;98736;-69
2022/04/21 07:17:42;;;;;;;17.88;5.18;;;;;;;13.17;51.33;101038.13;5027645;27;96804;-70
2022/04/21 07:20:11;;;;;;;17.63;4.70;;;;;;;13.61;50.00;101043.34;5031267;27;96628;-69
2022/04/21 07:22:38;;;;;;;15.50;5.05;;;;;;;13.88;49.61;101043.00;5030955;27;98281;-70
2022/04/21 07:25:07;;;;;;;12.70;5.13;;;;;;;13.28;50.90;101045.63;5018153;27;99510;-72
2022/04/21 07:27:36;;;;;;;16.77;5.15;;;;;;;13.41;50.79;101041.53;5021207;27;97026;-71
2022/04/21 07:30:02;;;;;;;12.52;5.00;;;;;;;13.79;49.96;101045.19;5025582;27;96954;-69
2022/04/21 07:32:29;;;;;;;22.02;5.10;;;;;;;13.34;50.53;101035.63;5024874;27;98959;-70
2022/04/21 07:34:55;;;;;;;11.40;4.78;;;;;;;13.59;50.21;101046.06;5023962;27;98197;-70
2022/04/21 07:37:22;;;;;;;16.23;4.88;;;;;;;13.37;50.69;101053.22;5027391;27;98693;-71
2022/04/21 07:39:48;;;;;;;7.88;4.35;;;;;;;12.97;51.99;101053.97;5024078;27;96851;-70
2022/04/21 07:42:15;;;;;;;12.80;5.30;;;;;;;13.64;50.33;101054.72;5026776;27;101480;-70
2022/04/21 07:44:46;;;;;;;14.07;4.65;;;;;;;13.67;50.03;101053.69;5032019;27;97482;-71
2022/04/21 07:47:12;;;;;;;20.95;5.30;;;;;;;13.68;50.23;101045.66;5028620;27;96808;-71
2022/04/21 07:49:48;;;;;;;16.17;5.45;;;;;;;14.02;49.86;101046.84;5027495;27;96999;-72
2022/04/21 07:55:14;;;;;;;10.27;4.90;;;;;;;13.51;51.44;101053.50;5020811;27;97081;-70
2022/04/21 07:57:41;;;;;;;12.75;4.90;;;;;;;13.96;49.90;101055.94;5026533;27;97283;-70
2022/04/21 08:00:11;;;;;;;13.98;4.60;;;;;;;13.74;50.50;101057.81;5026345;27;96805;-71
2022/04/21 08:02:39;;;;;;;13.07;4.63;;;;;;;14.53;48.66;101059.56;5012843;27;98191;-70
2022/04/21 08:05:06;;;;;;;13.85;5.43;;;;;;;13.53;50.71;101064.91;5025323;27;99877;-70
2022/04/21 08:07:34;;;;;;;14.98;5.07;;;;;;;13.21;51.74;101058.28;5027286;27;97010;-69
2022/04/21 08:10:01;;;;;;;29.92;14.10;;;;;;;12.84;52.95;101060.69;5027143;27;99148;-70
2022/04/21 08:12:28;;;;;;;14.77;5.47;;;;;;;13.02;53.02;101059.94;5024931;27;97755;-71
2022/04/21 08:14:54;;;;;;;17.42;5.13;;;;;;;13.62;51.23;101061.00;5029277;27;98850;-70
2022/04/21 08:17:22;;;;;;;13.30;5.47;;;;;;;13.85;50.26;101064.38;5025919;27;97105;-69
2022/04/21 08:19:49;;;;;;;16.85;5.53;;;;;;;13.65;50.71;101061.75;5029487;27;96869;-70
2022/04/21 08:22:15;;;;;;;10.57;5.00;;;;;;;14.44;48.83;101071.47;5029319;27;98137;-70
2022/04/21 08:32:56;;;;;;;14.35;5.70;;;;;;;14.73;49.52;101070.13;5027422;27;98049;-70
2022/04/21 08:35:23;;;;;;;14.20;5.38;;;;;;;14.94;49.46;101074.44;5029533;27;99199;-71
2022/04/21 08:37:50;;;;;;;13.77;5.78;;;;;;;15.33;48.34;101076.94;5022795;27;96950;-70
2022/04/21 08:40:18;;;;;;;15.25;5.40;;;;;;;15.20;48.96;101073.16;5028223;27;97152;-70
2022/04/21 08:42:44;;;;;;;12.93;6.03;;;;;;;14.60;51.70;101075.16;5024322;27;99311;-71
2022/04/21 08:45:13;;;;;;;13.15;5.15;;;;;;;15.10;50.13;101069.19;5027014;27;97669;-70
2022/04/21 08:47:42;;;;;;;10.60;4.97;;;;;;;15.01;50.67;101073.19;5027990;27;97514;-70
2022/04/21 08:50:12;;;;;;;14.63;5.82;;;;;;;14.73;52.30;101081.63;5024438;27;97109;-70
2022/04/21 08:52:40;;;;;;;14.35;5.72;;;;;;;15.38;50.67;101069.56;5022576;28;98927;-72
2022/04/21 08:55:07;;;;;;;14.73;6.38;;;;;;;15.25;50.61;101068.44;5020751;27;98984;-71
2022/04/21 08:57:35;;;;;;;14.63;6.05;;;;;;;15.24;49.92;101074.72;5023807;28;97186;-71
2022/04/21 09:00:04;;;;;;;14.20;5.85;;;;;;;14.85;51.10;101068.66;5026969;27;96932;-71
2022/04/21 09:02:34;;;;;;;17.02;5.75;;;;;;;15.33;50.19;101063.63;5027755;27;98112;-70
2022/04/21 09:05:01;;;;;;;15.45;6.35;;;;;;;15.23;50.76;101072.16;5025811;27;99172;-71
2022/04/21 09:07:29;;;;;;;11.95;6.40;;;;;;;14.77;51.54;101077.00;5023349;27;97274;-71
2022/04/21 09:10:05;;;;;;;13.32;6.57;;;;;;;15.13;51.02;101071.72;5025102;28;96883;-70
2022/04/21 09:12:32;;;;;;;15.33;5.67;;;;;;;15.09;50.73;101067.50;5026611;27;100311;-68
2022/04/21 09:15:04;;;;;;;21.58;5.93;;;;;;;15.38;50.40;101058.91;5027591;27;98774;-70
2022/04/21 09:17:31;;;;;;;16.85;6.70;;;;;;;15.19;50.33;101067.91;5024506;27;97988;-70
2022/04/21 09:19:58;;;;;;;19.23;6.88;;;;;;;15.57;49.57;101058.00;5027107;27;97195;-70
2022/04/21 09:22:25;;;;;;;11.07;6.03;;;;;;;15.74;49.15;101066.00;5022786;27;102218;-71
2022/04/21 09:24:54;;;;;;;18.02;7.00;;;;;;;15.66;49.11;101057.53;5023236;27;98813;-70
2022/04/21 09:27:20;;;;;;;13.43;5.63;;;;;;;15.90;48.43;101064.25;5028257;28;97023;-71
2022/04/21 09:29:47;;;;;;;17.77;5.93;;;;;;;15.19;50.69;101063.44;5022919;27;97233;-69
2022/04/21 09:32:17;;;;;;;13.00;5.53;;;;;;;15.04;51.04;101069.50;5022400;28;98785;-70
2022/04/21 09:34:48;;;;;;;13.90;5.68;;;;;;;14.87;51.67;101072.13;5026368;27;99415;-71
2022/04/21 09:37:19;;;;;;;16.48;6.60;;;;;;;15.41;49.98;101060.56;5023458;27;97189;-71
2022/04/21 09:39:50;;;;;;;19.02;6.13;;;;;;;15.83;48.92;101070.84;5025678;28;97247;-70
2022/04/21 09:42:26;;;;;;;14.48;6.28;;;;;;;15.92;48.44;101067.72;5027928;28;99134;-70
2022/04/21 09:47:36;;;;;;;11.88;6.88;;;;;;;15.61;48.77;101075.56;5024638;27;97263;-70
2022/04/21 09:50:14;;;;;;;10.00;5.53;;;;;;;16.14;47.90;101065.66;5004072;28;99024;-70
2022/04/21 09:52:48;;;;;;;13.27;6.65;;;;;;;15.60;48.97;101073.84;5021954;27;98985;-71
2022/04/21 09:55:31;;;;;;;13.05;6.32;;;;;;;15.69;48.98;101073.34;5026681;28;98912;-70
2022/04/21 09:58:06;;;;;;;19.48;6.95;;;;;;;16.20;47.79;101083.97;5026360;27;97238;-70
2022/04/21 10:00:34;;;;;;;13.85;7.32;;;;;;;15.77;48.37;101081.81;5023399;27;97405;-71
2022/04/21 10:03:02;;;;;;;24.90;7.50;;;;;;;15.58;49.28;101081.03;5023879;27;99065;-70
2022/04/21 10:05:30;;;;;;;13.57;7.07;;;;;;;16.01;48.39;101083.22;5024101;28;102520;-71
2022/04/21 10:07:57;;;;;;;14.88;7.63;;;;;;;14.89;50.51;101087.09;5021368;28;97642;-70
2022/04/21 10:10:26;;;;;;;19.10;7.72;;;;;;;14.62;51.84;101083.94;5022977;27;97610;-69
2022/04/21 10:12:55;;;;;;;18.13;6.95;;;;;;;15.21;50.54;101080.19;5024872;27;98282;-71
2022/04/21 10:15:25;;;;;;;11.63;7.20;;;;;;;15.32;49.63;101085.84;5025025;27;97090;-69
2022/04/21 10:17:51;;;;;;;15.55;7.63;;;;;;;15.66;48.95;101084.19;5025577;27;97851;-71
2022/04/21 10:20:20;;;;;;;15.75;7.57;;;;;;;15.87;48.38;101088.41;5029684;28;98010;-70
2022/04/21 10:22:47;;;;;;;15.40;8.32;;;;;;;15.71;48.81;101084.81;5024607;28;99042;-71
2022/04/21 10:25:14;;;;;;;19.65;8.45;;;;;;;15.76;48.62;101088.09;5027758;28;99783;-70
2022/04/21 10:27:45;;;;;;;16.55;8.25;;;;;;;15.39;49.52;101079.28;5025326;27;97158;-70
2022/04/21 10:30:19;;;;;;;15.90;8.15;;;;;;;15.83;48.24;101087.69;5020828;27;96919;-71
2022/04/21 10:32:54;;;;;;;13.13;7.45;;;;;;;15.32;49.77;101084.97;5022674;27;100269;-70
2022/04/21 10:35:47;;;;;;;13.27;7.85;;;;;;;15.69;48.99;101086.69;5020162;27;98861;-70
2022/04/21 10:38:21;;;;;;;24.95;10.88;;;;;;;14.98;50.33;101086.63;5021495;28;98281;-71
2022/04/21 10:41:00;;;;;;;18.45;8.55;;;;;;;15.53;48.96;101079.50;5022880;27;97032;-71
2022/04/21 10:44:03;;;;;;;14.20;8.40;;;;;;;15.11;49.76;101076.25;5023583;27;99234;-69
2022/04/21 10:46:30;;;;;;;15.20;7.35;;;;;;;15.59;48.89;101077.44;5022360;27;99280;-72
2022/04/21 10:48:59;;;;;;;16.55;8.27;;;;;;;16.31;47.03;101081.59;5026857;27;98210;-70
2022/04/21 10:58:50;;;;;;;20.50;8.05;;;;;;;16.10;46.69;101082.72;5022251;28;97748;-70
2022/04/21 11:01:19;;;;;;;12.23;7.80;;;;;;;16.25;46.79;101076.59;5017400;27;96830;-70
2022/04/21 11:04:04;;;;;;;12.55;7.45;;;;;;;16.40;46.52;101076.72;5022810;28;97291;-69
2022/04/21 11:06:41;;;;;;;17.23;7.88;;;;;;;16.19;47.10;101079.59;5021980;28;99483;-70
2022/04/21 11:09:08;;;;;;;14.80;7.85;;;;;;;17.18;44.80;101075.91;5022642;27;99252;-71
2022/04/21 11:11:57;;;;;;;14.13;7.90;;;;;;;17.10;45.04;101068.31;5025907;27;97467;-70
2022/04/21 11:14:31;;;;;;;13.70;7.53;;;;;;;17.40;44.35;101077.22;5024057;27;97080;-70
2022/04/21 11:16:58;;;;;;;15.73;8.60;;;;;;;17.01;44.83;101074.19;5026458;27;99994;-70
2022/04/21 11:19:32;;;;;;;12.73;7.75;;;;;;;17.39;43.85;101066.66;5028759;27;99222;-70
2022/04/21 11:22:01;;;;;;;18.60;8.43;;;;;;;17.32;44.26;101068.81;5025504;27;96772;-70
2022/04/21 11:24:28;;;;;;;15.70;7.97;;;;;;;17.84;43.13;101069.28;5024789;27;98890;-70
2022/04/21 11:26:56;;;;;;;16.30;7.65;;;;;;;18.06;42.59;101071.47;5025221;27;99070;-71
2022/04/21 11:29:22;;;;;;;15.20;8.23;;;;;;;17.45;43.93;101063.63;5027897;27;98948;-70
2022/04/21 11:31:49;;;;;;;12.10;6.95;;;;;;;16.83;45.46;101065.41;5021722;27;97466;-70
2022/04/21 11:34:22;;;;;;;13.15;7.45;;;;;;;17.38;44.19;101068.44;5030082;27;97225;-70
2022/04/21 11:36:48;;;;;;;12.65;6.88;;;;;;;16.59;46.05;101066.75;5024648;27;100673;-70
2022/04/21 11:39:16;;;;;;;13.23;7.53;;;;;;;16.69;45.68;101065.31;5028830;27;101545;-70
2022/04/21 11:41:44;;;;;;;13.00;7.10;;;;;;;16.99;45.44;101062.75;5023457;27;98841;-70
2022/04/21 11:44:11;;;;;;;11.15;6.70;;;;;;;16.97;45.07;101067.31;5026356;27;96847;-71
2022/04/21 11:46:39;;;;;;;15.65;6.43;;;;;;;16.97;45.31;101061.97;5026563;27;99405;-70
2022/04/21 11:49:05;;;;;;;11.88;6.70;;;;;;;16.87;45.45;101063.44;5025743;27;98737;-70
2022/04/21 11:51:32;;;;;;;12.15;6.80;;;;;;;16.52;46.54;101060.91;5028324;27;98457;-71
2022/04/21 11:54:04;;;;;;;14.48;6.38;;;;;;;17.08;45.06;101059.53;5026928;27;97798;-71
2022/04/21 11:56:32;;;;;;;10.10;5.82;;;;;;;16.36;46.49;101065.31;5021020;27;98682;-71
2022/04/21 11:59:06;;;;;;;13.68;6.72;;;;;;;16.43;46.35;101072.06;5026710;27;99274;-70
2022/04/21 12:06:58;;;;;;;10.88;6.47;;;;;;;16.84;46.12;101059.13;5017646;27;98552;-70
2022/04/21 12:09:27;;;;;;;11.02;6.43;;;;;;;17.14;45.11;101062.69;5025616;27;99192;-70
2022/04/21 12:11:57;;;;;;;17.48;6.88;;;;;;;16.58;46.62;101060.56;5027681;27;98331;-70
2022/04/21 12:14:24;;;;;;;9.93;6.93;;;;;;;16.87;46.22;101061.59;5029909;28;97001;-71